Time;durP1;ratioP1;P1;durP2;ratioP2;P2;SDS_P1;SDS_P2;PMS_P1;PMS_P2;Temp;Humidity;BMP_temperature;BMP_pressure;BME280_temperature;BME280_humidity;BME280_pressure;Samples;Min_cycle;Max_cycle;Signal;HPM_P1;HPM_P2
2022/01/18 00:02:15;;;;;;;24.45;6.38;;;3.10;99.90;;;;;;5037186;28;20972;-53
2022/01/18 00:04:59;;;;;;;28.77;6.53;;;3.00;99.90;;;;;;5049957;28;20484;-52
2022/01/18 00:07:44;;;;;;;25.50;6.93;;;2.90;99.90;;;;;;5053526;28;20037;-47
2022/01/18 00:10:31;;;;;;;29.65;8.07;;;3.30;99.90;;;;;;5053928;28;20090;-49
2022/01/18 00:16:25;;;;;;;29.50;6.35;;;3.20;99.90;;;;;;5051673;28;20052;-47
2022/01/18 00:19:11;;;;;;;28.42;6.13;;;3.10;99.90;;;;;;5048765;28;20110;-51
2022/01/18 00:24:41;;;;;;;31.30;6.70;;;2.80;99.90;;;;;;5053682;28;20024;-50
2022/01/18 00:27:25;;;;;;;30.60;7.15;;;2.90;99.90;;;;;;5053447;28;20040;-47
2022/01/18 00:33:22;;;;;;;28.90;7.07;;;2.70;99.90;;;;;;5051565;28;20098;-48
2022/01/18 00:36:20;;;;;;;34.15;7.03;;;2.80;99.90;;;;;;5048012;28;20502;-53
2022/01/18 00:39:11;;;;;;;36.40;7.82;;;2.70;99.90;;;;;;5052319;28;20036;-52
2022/01/18 00:41:55;;;;;;;24.75;6.45;;;2.70;99.90;;;;;;5052349;28;20039;-49
2022/01/18 00:44:39;;;;;;;33.15;7.53;;;2.70;99.90;;;;;;5053198;28;20542;-48
2022/01/18 00:47:24;;;;;;;37.33;7.18;;;2.80;99.90;;;;;;5051940;28;20056;-51
2022/01/18 00:50:09;;;;;;;31.92;7.22;;;2.80;99.90;;;;;;5051739;28;20044;-50
2022/01/18 00:52:55;;;;;;;;;;;2.80;99.90;;;;;;5050889;28;20515;-47
2022/01/18 00:55:50;;;;;;;30.65;7.28;;;3.00;99.90;;;;;;5052660;28;20326;-51
2022/01/18 00:58:35;;;;;;;41.85;7.35;;;3.00;99.90;;;;;;5051143;28;20055;-48
2022/01/18 01:01:22;;;;;;;35.20;6.43;;;3.10;99.90;;;;;;5052642;28;20040;-50
2022/01/18 01:04:06;;;;;;;24.00;7.18;;;3.00;99.90;;;;;;5052721;28;20511;-48
2022/01/18 01:06:50;;;;;;;21.90;6.57;;;3.20;99.90;;;;;;5047103;28;20036;-48
2022/01/18 01:09:35;;;;;;;31.63;6.38;;;3.20;99.90;;;;;;5049229;28;20135;-48
2022/01/18 01:12:22;;;;;;;23.77;6.20;;;3.20;99.90;;;;;;5051529;28;20471;-47
2022/01/18 01:15:11;;;;;;;26.48;6.55;;;3.20;99.90;;;;;;5047094;28;20059;-48
2022/01/18 01:36:14;;;;;;;27.35;6.90;;;3.50;99.90;;;;;;5046772;28;20388;-48
2022/01/18 01:42:30;;;;;;;18.10;5.18;;;3.60;99.90;;;;;;5052140;28;20816;-53
2022/01/18 01:45:16;;;;;;;24.48;7.15;;;3.60;99.90;;;;;;5051846;28;20051;-50
2022/01/18 01:48:01;;;;;;;26.45;5.95;;;3.60;99.90;;;;;;5049290;28;20082;-51
2022/01/18 01:50:50;;;;;;;24.02;5.90;;;3.50;99.90;;;;;;5049265;28;20036;-49
2022/01/18 01:53:34;;;;;;;26.85;7.20;;;3.70;99.90;;;;;;5047149;28;20095;-48
2022/01/18 01:56:18;;;;;;;23.40;5.43;;;3.70;99.90;;;;;;5050076;28;20083;-48
2022/01/18 01:59:03;;;;;;;28.42;6.72;;;3.70;99.90;;;;;;5051410;28;20401;-47
2022/01/18 02:01:49;;;;;;;26.45;6.05;;;3.70;99.90;;;;;;5051374;28;20032;-50
2022/01/18 02:04:33;;;;;;;36.67;8.23;;;3.70;99.90;;;;;;5049310;28;20064;-47
2022/01/18 02:07:17;;;;;;;18.52;5.47;;;3.70;99.90;;;;;;5048407;28;20878;-48
2022/01/18 02:10:03;;;;;;;18.92;5.55;;;3.80;99.90;;;;;;5052190;28;20059;-47
2022/01/18 02:12:48;;;;;;;27.02;5.43;;;3.80;99.90;;;;;;5055058;28;20087;-50
2022/01/18 02:15:37;;;;;;;28.40;6.50;;;3.80;99.90;;;;;;5056555;28;20444;-48
2022/01/18 02:24:27;;;;;;;25.83;5.47;;;4.10;99.90;;;;;;5051245;28;20116;-48
2022/01/18 02:27:12;;;;;;;24.30;5.40;;;4.20;99.90;;;;;;5048990;28;20052;-51
2022/01/18 02:29:56;;;;;;;;;;;4.20;99.90;;;;;;5051810;28;20461;-48
2022/01/18 02:32:42;;;;;;;22.95;6.10;;;4.20;99.90;;;;;;5050005;28;19921;-53
2022/01/18 02:35:26;;;;;;;28.05;5.88;;;4.10;99.90;;;;;;5061284;28;20043;-49
2022/01/18 02:38:11;;;;;;;20.35;5.97;;;4.10;99.90;;;;;;5057797;28;20515;-51
2022/01/18 02:40:57;;;;;;;21.50;5.32;;;4.10;99.90;;;;;;5058063;28;20451;-49
2022/01/18 02:43:50;;;;;;;18.38;5.05;;;4.20;99.90;;;;;;5055982;28;20028;-47
2022/01/18 02:46:34;;;;;;;27.70;6.43;;;4.10;99.90;;;;;;5056140;28;20090;-49
2022/01/18 02:49:19;;;;;;;22.63;5.03;;;4.00;99.90;;;;;;5055697;28;20039;-53
2022/01/18 02:52:03;;;;;;;21.98;5.93;;;4.10;99.90;;;;;;5055706;28;20113;-52
2022/01/18 02:54:48;;;;;;;23.48;6.22;;;4.00;99.90;;;;;;5055882;28;20475;-49
2022/01/18 02:57:41;;;;;;;22.98;5.95;;;4.20;99.90;;;;;;5056248;28;20126;-50
2022/01/18 03:00:30;;;;;;;22.30;6.55;;;4.10;99.90;;;;;;5056411;28;20054;-50
2022/01/18 03:03:16;;;;;;;27.00;6.00;;;4.10;99.90;;;;;;5056228;28;20040;-48
2022/01/18 03:06:01;;;;;;;20.33;5.72;;;4.00;99.90;;;;;;5056296;28;20098;-47
2022/01/18 03:08:45;;;;;;;;;;;4.10;99.90;;;;;;5037528;28;20075;-52
2022/01/18 03:11:33;;;;;;;22.25;6.25;;;3.90;99.90;;;;;;5070350;28;19979;-51
2022/01/18 03:14:16;;;;;;;20.73;5.78;;;3.80;99.90;;;;;;5056023;28;20036;-53
2022/01/18 03:17:01;;;;;;;20.67;6.10;;;3.80;99.90;;;;;;5056042;28;20043;-49
2022/01/18 03:19:45;;;;;;;25.80;6.18;;;3.90;99.90;;;;;;5055722;28;20055;-51
2022/01/18 03:22:29;;;;;;;28.88;7.20;;;3.80;99.90;;;;;;5055269;28;20174;-50
2022/01/18 03:25:26;;;;;;;29.52;6.80;;;3.80;99.90;;;;;;5055718;28;20553;-48
2022/01/18 03:28:11;;;;;;;26.52;5.72;;;3.80;99.90;;;;;;5054583;28;20035;-49
2022/01/18 03:30:58;;;;;;;19.23;5.00;;;3.90;99.90;;;;;;5054594;28;20420;-50
2022/01/18 03:33:42;;;;;;;19.77;5.35;;;4.00;99.90;;;;;;5054914;28;20570;-52
2022/01/18 03:36:26;;;;;;;26.90;6.75;;;3.90;99.90;;;;;;5054736;28;20043;-51
2022/01/18 03:39:10;;;;;;;21.40;5.28;;;3.80;99.90;;;;;;5055082;28;20044;-51
2022/01/18 03:41:59;;;;;;;22.23;6.13;;;4.00;99.90;;;;;;5054345;28;20432;-50
2022/01/18 03:44:45;;;;;;;23.98;5.95;;;4.20;99.90;;;;;;5054897;28;20068;-49
2022/01/18 03:47:33;;;;;;;28.35;5.95;;;4.20;99.90;;;;;;5044519;28;20036;-48
2022/01/18 03:50:18;;;;;;;19.30;5.30;;;4.10;99.90;;;;;;5052934;28;20091;-48
2022/01/18 03:53:02;;;;;;;;;;;4.20;99.90;;;;;;5055205;28;20071;-48
2022/01/18 03:55:51;;;;;;;25.65;6.05;;;4.30;99.90;;;;;;5053058;28;19924;-49
2022/01/18 03:58:36;;;;;;;24.42;6.82;;;4.30;99.90;;;;;;5053099;28;20086;-49
2022/01/18 04:01:20;;;;;;;29.13;6.70;;;4.30;99.90;;;;;;5053206;28;20085;-47
2022/01/18 04:04:04;;;;;;;28.73;6.63;;;4.20;99.90;;;;;;5054548;28;20503;-49
2022/01/18 04:06:48;;;;;;;26.17;6.32;;;4.30;99.90;;;;;;5054308;28;20123;-48
2022/01/18 04:09:33;;;;;;;26.38;5.55;;;4.40;99.90;;;;;;5054510;28;20075;-48
2022/01/18 04:12:17;;;;;;;25.67;6.25;;;4.50;99.90;;;;;;5053511;28;20039;-50
2022/01/18 04:15:07;;;;;;;24.30;6.35;;;4.50;99.90;;;;;;5046070;28;20044;-48
2022/01/18 04:29:32;;;;;;;20.35;5.55;;;4.30;99.90;;;;;;5051749;28;20068;-48
2022/01/18 04:32:16;;;;;;;27.63;5.65;;;4.40;99.90;;;;;;5051477;28;20400;-48
2022/01/18 04:35:00;;;;;;;19.15;4.82;;;4.30;99.90;;;;;;5052884;28;20579;-51
2022/01/18 04:37:44;;;;;;;30.07;6.43;;;4.40;99.90;;;;;;5052595;28;20527;-49
2022/01/18 04:40:30;;;;;;;25.00;5.22;;;4.40;99.90;;;;;;5051666;28;20035;-51
2022/01/18 04:43:42;;;;;;;22.83;7.25;;;4.40;99.90;;;;;;5052295;28;20031;-48
2022/01/18 04:49:31;;;;;;;21.42;5.55;;;4.40;99.90;;;;;;5050237;28;20098;-50
2022/01/18 04:52:15;;;;;;;27.23;7.57;;;4.40;99.90;;;;;;5050845;28;20054;-50
2022/01/18 04:55:00;;;;;;;22.55;6.28;;;4.50;99.90;;;;;;5052399;28;20040;-48
2022/01/18 04:57:53;;;;;;;19.70;5.90;;;4.50;99.90;;;;;;5051746;28;20523;-52
2022/01/18 05:00:37;;;;;;;19.33;5.45;;;4.50;99.90;;;;;;5052828;28;20044;-51
2022/01/18 05:03:21;;;;;;;24.55;5.38;;;4.60;99.90;;;;;;5052422;28;20044;-50
2022/01/18 05:06:12;;;;;;;21.80;6.10;;;4.60;99.90;;;;;;5053093;28;20028;-47
2022/01/18 05:08:59;;;;;;;32.90;6.55;;;4.60;99.90;;;;;;5052964;28;20091;-52
2022/01/18 05:11:52;;;;;;;23.20;6.47;;;4.70;99.90;;;;;;5052580;28;20098;-49
2022/01/18 05:14:37;;;;;;;26.33;6.18;;;4.60;99.90;;;;;;5053123;28;20036;-50
2022/01/18 05:17:40;;;;;;;;;;;4.60;99.90;;;;;;5052124;28;20040;-52
2022/01/18 05:20:53;;;;;;;22.52;5.53;;;4.60;99.90;;;;;;5032556;28;20353;-50
2022/01/18 05:23:37;;;;;;;25.52;5.28;;;4.70;99.90;;;;;;5048877;28;20558;-52
2022/01/18 05:26:22;;;;;;;23.15;5.93;;;4.70;99.90;;;;;;5052936;28;20061;-51
2022/01/18 05:29:06;;;;;;;;;;;4.60;99.90;;;;;;5053199;28;20040;-49
2022/01/18 05:31:51;;;;;;;16.23;4.85;;;4.70;99.90;;;;;;5052802;28;19936;-48
2022/01/18 05:34:35;;;;;;;;;;;4.60;99.90;;;;;;5053221;28;20044;-50
2022/01/18 05:37:20;;;;;;;26.77;6.15;;;4.60;99.90;;;;;;5051771;28;19951;-50
2022/01/18 05:40:04;;;;;;;28.77;5.88;;;4.60;99.90;;;;;;5051859;28;20036;-53
2022/01/18 05:42:48;;;;;;;28.75;6.00;;;4.40;99.90;;;;;;5052572;28;20446;-50
2022/01/18 05:45:33;;;;;;;15.80;5.15;;;4.40;99.90;;;;;;5052390;28;20040;-50
2022/01/18 05:48:20;;;;;;;16.55;4.57;;;4.50;99.90;;;;;;5052414;28;20044;-50
2022/01/18 05:51:04;;;;;;;27.75;5.97;;;4.50;99.90;;;;;;5052635;28;20048;-52
2022/01/18 05:53:49;;;;;;;28.00;6.43;;;4.40;99.90;;;;;;5052407;28;20074;-52
2022/01/18 05:56:33;;;;;;;23.65;5.72;;;4.40;99.90;;;;;;5039777;28;20055;-48
2022/01/18 05:59:23;;;;;;;26.60;5.72;;;4.40;99.90;;;;;;5052330;28;20036;-50
2022/01/18 06:02:16;;;;;;;19.77;5.28;;;4.30;99.90;;;;;;5051227;28;20110;-53
2022/01/18 06:08:04;;;;;;;22.48;6.63;;;4.40;99.90;;;;;;5052338;28;20044;-48
2022/01/18 06:10:48;;;;;;;13.17;6.27;;;4.40;99.90;;;;;;5052072;28;20076;-49
2022/01/18 06:13:32;;;;;;;26.30;5.82;;;4.50;99.90;;;;;;5055133;28;20463;-49
2022/01/18 06:16:16;;;;;;;19.00;6.30;;;4.40;99.90;;;;;;5056774;28;20048;-48
2022/01/18 06:19:00;;;;;;;15.82;5.07;;;4.40;99.90;;;;;;5056155;28;20110;-50
2022/01/18 06:21:44;;;;;;;22.17;5.30;;;4.40;99.90;;;;;;5056238;28;20079;-46
2022/01/18 06:24:28;;;;;;;29.20;6.50;;;4.30;99.90;;;;;;5056745;28;20396;-49
2022/01/18 06:27:12;;;;;;;23.85;6.88;;;4.30;99.90;;;;;;5056479;28;20048;-49
2022/01/18 06:29:56;;;;;;;18.08;5.45;;;4.40;99.90;;;;;;5055940;28;20036;-49
2022/01/18 06:32:44;;;;;;;21.63;5.55;;;4.40;99.90;;;;;;5055209;28;20106;-50
2022/01/18 06:35:29;;;;;;;15.50;5.10;;;4.30;99.90;;;;;;5055758;28;20040;-53
2022/01/18 06:38:13;;;;;;;18.90;5.78;;;4.30;99.90;;;;;;5054959;28;20080;-56
2022/01/18 06:40:57;;;;;;;24.05;5.70;;;4.30;99.90;;;;;;5055767;28;20380;-49
2022/01/18 06:43:42;;;;;;;13.48;5.05;;;4.30;99.90;;;;;;5055812;28;20028;-47
2022/01/18 06:46:26;;;;;;;27.77;6.07;;;4.10;99.90;;;;;;5055535;28;20071;-49
2022/01/18 06:49:10;;;;;;;25.67;6.57;;;4.20;99.90;;;;;;5056165;28;20450;-47
2022/01/18 06:51:54;;;;;;;23.70;5.25;;;4.20;99.90;;;;;;5042458;28;20043;-49
2022/01/18 06:54:39;;;;;;;22.35;6.30;;;4.30;99.90;;;;;;5055960;28;20068;-50
2022/01/18 06:57:23;;;;;;;25.48;6.30;;;4.10;99.90;;;;;;5055238;28;20590;-52
2022/01/18 07:00:08;;;;;;;23.48;5.85;;;4.10;99.90;;;;;;5055465;28;20044;-50
2022/01/18 07:02:52;;;;;;;23.90;6.93;;;4.10;99.90;;;;;;5055549;28;20124;-50
2022/01/18 07:05:37;;;;;;;18.67;6.03;;;4.10;99.90;;;;;;5054918;28;20121;-49
2022/01/18 07:08:21;;;;;;;22.70;7.38;;;4.10;99.90;;;;;;5055208;28;20515;-49
2022/01/18 07:11:06;;;;;;;26.77;6.22;;;4.20;99.90;;;;;;5055318;28;20500;-50
2022/01/18 07:13:50;;;;;;;;;;;4.10;99.90;;;;;;5055745;28;20040;-52
2022/01/18 07:16:34;;;;;;;27.83;6.22;;;4.10;99.90;;;;;;5054877;28;20453;-52
2022/01/18 07:19:18;;;;;;;19.80;6.05;;;4.40;99.90;;;;;;5055525;28;20055;-55
2022/01/18 07:22:03;;;;;;;20.60;5.90;;;4.40;99.90;;;;;;5055756;28;20060;-49
2022/01/18 07:24:49;;;;;;;21.90;6.90;;;4.50;99.90;;;;;;5055269;28;20063;-51
2022/01/18 07:27:33;;;;;;;24.23;6.80;;;4.50;99.90;;;;;;5055614;28;20561;-53
2022/01/18 07:30:17;;;;;;;19.02;6.18;;;4.50;99.90;;;;;;5068726;28;20061;-49
2022/01/18 07:33:02;;;;;;;22.93;8.47;;;4.70;99.90;;;;;;5055416;28;20510;-47
2022/01/18 07:35:47;;;;;;;18.08;6.22;;;4.70;99.90;;;;;;5055265;28;20271;-50
2022/01/18 07:38:31;;;;;;;;;;;4.70;99.90;;;;;;5055217;28;20047;-50
2022/01/18 07:41:15;;;;;;;18.52;6.35;;;4.50;99.90;;;;;;5054265;28;19950;-49
2022/01/18 07:43:59;;;;;;;16.50;6.43;;;4.60;99.90;;;;;;5054711;28;20040;-51
2022/01/18 07:46:43;;;;;;;14.02;5.53;;;4.50;99.90;;;;;;5054755;28;20086;-47
2022/01/18 07:49:27;;;;;;;27.20;6.95;;;4.60;99.90;;;;;;5053818;28;20067;-48
2022/01/18 07:52:11;;;;;;;17.83;5.68;;;4.50;99.90;;;;;;5054964;28;20036;-51
2022/01/18 07:54:56;;;;;;;24.53;5.97;;;4.60;99.90;;;;;;5054565;28;20051;-49
2022/01/18 07:57:43;;;;;;;;;;;4.60;99.90;;;;;;5037968;28;20040;-52
2022/01/18 08:00:29;;;;;;;20.58;6.38;;;4.70;99.90;;;;;;5065482;28;20033;-53
2022/01/18 08:03:13;;;;;;;17.90;5.60;;;4.50;99.90;;;;;;5054172;28;20039;-49
2022/01/18 08:05:57;;;;;;;18.65;6.78;;;4.40;99.90;;;;;;5053900;28;20467;-50
2022/01/18 08:08:41;;;;;;;24.98;7.43;;;4.50;99.90;;;;;;5052581;28;20112;-52
2022/01/18 08:11:28;;;;;;;23.27;8.00;;;4.50;99.90;;;;;;5052744;28;20055;-50
2022/01/18 08:14:13;;;;;;;20.65;8.15;;;4.60;99.90;;;;;;5053765;28;20036;-50
2022/01/18 08:17:02;;;;;;;19.90;7.70;;;4.70;99.90;;;;;;5054228;28;20530;-52
2022/01/18 08:19:46;;;;;;;20.63;7.18;;;4.80;99.90;;;;;;5054507;28;20040;-54
2022/01/18 08:22:30;;;;;;;23.10;7.68;;;4.70;99.90;;;;;;5052888;28;20408;-52
2022/01/18 08:25:16;;;;;;;22.20;7.75;;;4.60;99.90;;;;;;5048615;28;20438;-50
2022/01/18 08:28:02;;;;;;;25.40;7.57;;;4.50;99.90;;;;;;5045115;28;20078;-50
2022/01/18 08:30:46;;;;;;;18.98;7.90;;;4.60;99.90;;;;;;5054235;28;20036;-55
2022/01/18 08:33:31;;;;;;;23.75;7.45;;;4.60;99.90;;;;;;5061156;28;20460;-51
2022/01/18 08:36:15;;;;;;;16.60;7.78;;;4.60;99.90;;;;;;5058358;28;20036;-52
2022/01/18 08:39:00;;;;;;;18.48;7.22;;;4.60;99.90;;;;;;5064077;28;20043;-51
2022/01/18 08:41:45;;;;;;;19.35;8.27;;;4.60;99.90;;;;;;5060693;28;20036;-52
2022/01/18 08:44:29;;;;;;;25.55;7.85;;;4.70;99.90;;;;;;5055892;28;20345;-50
2022/01/18 08:47:16;;;;;;;17.17;8.13;;;4.60;99.90;;;;;;5039532;28;20080;-56
2022/01/18 08:50:01;;;;;;;22.55;8.18;;;4.50;99.90;;;;;;5053746;28;20075;-53
2022/01/18 08:52:51;;;;;;;20.98;6.65;;;4.50;99.90;;;;;;5053080;28;20040;-55
2022/01/18 08:55:35;;;;;;;17.60;7.47;;;4.70;99.90;;;;;;5052954;28;20043;-56
2022/01/18 08:58:21;;;;;;;26.60;7.47;;;4.70;99.90;;;;;;5053875;28;20122;-50
2022/01/18 09:01:05;;;;;;;18.48;7.63;;;4.70;99.90;;;;;;5053217;28;20519;-53
2022/01/18 09:03:50;;;;;;;19.40;8.00;;;4.80;99.90;;;;;;5053411;28;20040;-55
2022/01/18 09:06:34;;;;;;;26.40;10.25;;;4.90;99.90;;;;;;5054142;28;20036;-53
2022/01/18 09:09:19;;;;;;;24.50;9.20;;;4.90;99.90;;;;;;5053652;28;20039;-52
2022/01/18 09:12:04;;;;;;;26.67;7.63;;;4.80;99.90;;;;;;5053948;28;20040;-52
2022/01/18 09:14:48;;;;;;;22.77;8.80;;;4.90;99.90;;;;;;5053900;28;20051;-52
2022/01/18 09:17:34;;;;;;;16.70;8.00;;;4.90;99.90;;;;;;5053388;28;20067;-55
2022/01/18 09:20:19;;;;;;;23.08;8.50;;;4.90;99.90;;;;;;5053220;28;20055;-56
2022/01/18 09:23:03;;;;;;;21.00;9.10;;;4.90;99.90;;;;;;5053299;28;20564;-55
2022/01/18 09:25:48;;;;;;;20.13;7.35;;;4.90;99.90;;;;;;5053582;28;20124;-56
2022/01/18 09:28:32;;;;;;;23.27;9.23;;;4.90;99.90;;;;;;5052950;28;20132;-56
2022/01/18 09:31:17;;;;;;;25.65;9.32;;;4.90;99.90;;;;;;5053010;28;20459;-54
2022/01/18 09:34:01;;;;;;;;;;;4.90;99.90;;;;;;5053373;28;20066;-57
2022/01/18 09:36:49;;;;;;;21.15;7.63;;;4.90;99.90;;;;;;5053384;28;19916;-58
2022/01/18 09:39:33;;;;;;;16.25;7.72;;;5.00;99.90;;;;;;5053089;28;20064;-57
2022/01/18 09:42:17;;;;;;;17.73;8.20;;;5.00;99.90;;;;;;5052907;28;20036;-56
2022/01/18 09:45:11;;;;;;;18.27;8.38;;;5.10;99.90;;;;;;5053015;28;20392;-57
2022/01/18 09:47:57;;;;;;;19.13;8.88;;;5.20;99.90;;;;;;5052935;28;20039;-56
2022/01/18 09:50:43;;;;;;;23.90;8.45;;;5.30;99.90;;;;;;5052567;28;20114;-57
2022/01/18 09:53:27;;;;;;;16.63;8.10;;;5.40;99.90;;;;;;5052770;28;20044;-54
2022/01/18 09:56:12;;;;;;;20.88;8.10;;;5.40;99.90;;;;;;5053429;28;20060;-53
2022/01/18 09:58:56;;;;;;;23.65;10.73;;;5.50;99.90;;;;;;5053300;28;20036;-54
2022/01/18 10:01:40;;;;;;;19.98;8.32;;;5.50;99.90;;;;;;5052509;28;20457;-55
2022/01/18 10:04:30;;;;;;;19.00;8.65;;;5.60;99.90;;;;;;5052335;28;20032;-56
2022/01/18 10:07:15;;;;;;;14.48;7.43;;;5.60;99.90;;;;;;5052380;28;20075;-53
2022/01/18 10:10:03;;;;;;;16.95;7.65;;;5.60;99.90;;;;;;5052028;28;20048;-55
2022/01/18 10:12:57;;;;;;;16.90;7.50;;;5.60;99.90;;;;;;5051667;28;20144;-54
2022/01/18 10:16:04;;;;;;;15.38;7.63;;;5.80;99.90;;;;;;5033085;28;20048;-57
2022/01/18 10:18:53;;;;;;;40.47;18.90;;;5.90;99.90;;;;;;5041293;28;20067;-56
2022/01/18 10:21:45;;;;;;;33.00;17.63;;;6.00;99.90;;;;;;5052487;28;20047;-55
2022/01/18 10:24:30;;;;;;;24.73;11.20;;;6.10;99.90;;;;;;5052492;28;20055;-57
2022/01/18 10:27:14;;;;;;;15.70;8.32;;;6.20;99.90;;;;;;5051390;28;20151;-57
2022/01/18 10:30:06;;;;;;;20.10;7.88;;;6.20;99.90;;;;;;5053264;28;20125;-54
2022/01/18 10:33:09;;;;;;;17.58;5.75;;;6.30;99.90;;;;;;5052774;28;20110;-53
2022/01/18 10:36:14;;;;;;;12.30;5.95;;;6.30;99.90;;;;;;5051490;28;20159;-55
2022/01/18 10:39:02;;;;;;;10.68;5.00;;;6.30;99.90;;;;;;5052725;28;20031;-52
2022/01/18 10:41:46;;;;;;;12.32;5.38;;;6.40;99.90;;;;;;5052230;28;20076;-54
2022/01/18 10:44:31;;;;;;;13.90;5.20;;;6.20;99.90;;;;;;5051918;28;20043;-57
2022/01/18 10:47:18;;;;;;;10.27;5.18;;;6.30;99.90;;;;;;5047238;28;20047;-56
2022/01/18 10:50:33;;;;;;;10.70;4.95;;;6.40;99.90;;;;;;5047143;28;20036;-53
2022/01/18 10:53:21;;;;;;;8.45;4.10;;;6.40;99.90;;;;;;5051784;28;20052;-56
2022/01/18 10:56:13;;;;;;;8.13;3.90;;;6.40;99.90;;;;;;5052225;28;20377;-55
2022/01/18 10:58:57;;;;;;;9.10;4.32;;;6.40;99.90;;;;;;5052701;28;20040;-54
2022/01/18 11:01:41;;;;;;;10.82;3.83;;;6.20;99.90;;;;;;5055714;28;20090;-59
2022/01/18 11:04:28;;;;;;;9.90;3.97;;;6.20;99.90;;;;;;5056319;28;20529;-53
2022/01/18 11:07:14;;;;;;;6.85;3.70;;;6.10;99.90;;;;;;5055871;28;20032;-57
2022/01/18 11:10:05;;;;;;;10.10;5.28;;;6.30;99.90;;;;;;5055216;28;20044;-56
2022/01/18 11:13:08;;;;;;;10.98;5.03;;;6.20;99.90;;;;;;5055262;28;20519;-56
2022/01/18 11:16:03;;;;;;;7.57;4.55;;;6.20;99.90;;;;;;5055487;28;20094;-57
2022/01/18 11:18:48;;;;;;;13.50;5.18;;;6.20;99.90;;;;;;5055329;28;20032;-58
2022/01/18 11:21:37;;;;;;;10.25;4.72;;;6.20;99.90;;;;;;5055592;28;20098;-53
2022/01/18 11:24:22;;;;;;;12.18;4.65;;;6.30;99.90;;;;;;5050933;28;20032;-55
2022/01/18 11:27:12;;;;;;;11.35;4.15;;;6.20;99.90;;;;;;5055243;28;20106;-53
2022/01/18 11:29:56;;;;;;;8.30;4.10;;;6.30;99.90;;;;;;5053287;28;20174;-56
2022/01/18 11:32:42;;;;;;;8.57;4.35;;;6.30;99.90;;;;;;5054111;28;20090;-54
2022/01/18 11:35:38;;;;;;;8.95;4.70;;;6.30;99.90;;;;;;5055093;28;20110;-50
2022/01/18 11:38:30;;;;;;;10.82;4.35;;;6.30;99.90;;;;;;5055152;28;20031;-52
2022/01/18 11:41:30;;;;;;;8.15;4.20;;;6.40;99.90;;;;;;5055172;28;20033;-53
2022/01/18 11:44:17;;;;;;;9.63;4.53;;;6.40;99.90;;;;;;5054526;28;20040;-51
2022/01/18 11:47:03;;;;;;;6.70;4.40;;;6.40;99.90;;;;;;5040411;28;20040;-54
2022/01/18 11:49:50;;;;;;;11.90;4.60;;;6.40;99.90;;;;;;5055060;28;20043;-54
2022/01/18 11:52:39;;;;;;;13.55;4.30;;;6.40;99.90;;;;;;5054784;28;20136;-55
2022/01/18 11:55:38;;;;;;;6.65;3.60;;;6.50;99.90;;;;;;5040515;28;20474;-51
2022/01/18 11:58:24;;;;;;;10.38;3.90;;;6.40;99.90;;;;;;5054691;28;20397;-50
2022/01/18 12:01:10;;;;;;;7.85;3.88;;;6.20;99.90;;;;;;5054987;28;20508;-47
2022/01/18 12:03:55;;;;;;;7.55;3.75;;;6.40;99.90;;;;;;5045377;28;20082;-50
2022/01/18 12:06:46;;;;;;;;;;;6.50;99.90;;;;;;5054847;28;20040;-50
2022/01/18 12:09:41;;;;;;;7.07;4.20;;;6.50;99.90;;;;;;5053910;28;19912;-50
2022/01/18 12:12:45;;;;;;;12.93;4.40;;;6.40;99.90;;;;;;5058607;28;20108;-49
2022/01/18 12:15:32;;;;;;;10.70;4.60;;;6.50;99.90;;;;;;5057118;28;20052;-50
2022/01/18 12:18:19;;;;;;;10.05;4.05;;;6.60;99.90;;;;;;5067323;28;20035;-49
2022/01/18 12:21:11;;;;;;;9.45;4.95;;;6.60;99.90;;;;;;5042137;28;20214;-49
2022/01/18 12:23:57;;;;;;;10.48;4.25;;;6.50;99.90;;;;;;5053302;28;20039;-49
2022/01/18 12:26:46;;;;;;;9.57;4.03;;;6.50;99.90;;;;;;5054157;28;20075;-48
2022/01/18 12:32:39;;;;;;;7.07;3.55;;;6.60;99.90;;;;;;5053312;28;20047;-54
2022/01/18 12:35:26;;;;;;;8.73;3.92;;;6.70;99.90;;;;;;5033974;28;20113;-49
2022/01/18 12:38:31;;;;;;;5.45;3.20;;;6.60;99.90;;;;;;5045560;28;20032;-52
2022/01/18 12:41:39;;;;;;;5.45;3.25;;;6.70;99.90;;;;;;5037343;28;20036;-50
2022/01/18 12:44:24;;;;;;;10.23;4.80;;;6.90;99.90;;;;;;5045972;28;20044;-53
2022/01/18 12:47:08;;;;;;;7.57;4.00;;;6.90;99.90;;;;;;5053613;28;20052;-54
2022/01/18 12:49:53;;;;;;;5.78;3.42;;;6.90;99.90;;;;;;5053894;28;20040;-52
2022/01/18 12:52:47;;;;;;;;;;;7.10;99.90;;;;;;5053502;28;20400;-52
2022/01/18 12:55:43;;;;;;;7.47;3.70;;;7.00;99.90;;;;;;5053399;28;19924;-56
2022/01/18 12:58:28;;;;;;;7.78;3.50;;;6.80;99.90;;;;;;5053265;28;20052;-54
2022/01/18 13:01:24;;;;;;;8.40;4.03;;;6.90;99.90;;;;;;5052750;28;20028;-54
2022/01/18 13:04:08;;;;;;;6.80;3.35;;;6.90;99.90;;;;;;5053085;28;20035;-50
2022/01/18 13:06:55;;;;;;;6.93;3.78;;;6.90;99.90;;;;;;5053691;28;20074;-50
2022/01/18 13:10:01;;;;;;;7.50;3.78;;;7.00;99.90;;;;;;5053701;28;20040;-49
2022/01/18 13:12:46;;;;;;;;;;;7.00;99.90;;;;;;5049863;28;20082;-53
2022/01/18 13:25:14;;;;;;;11.15;3.78;;;6.90;99.90;;;;;;5052930;28;20059;-50
2022/01/18 13:28:03;;;;;;;7.75;3.70;;;6.90;99.90;;;;;;5053592;28;20059;-53
2022/01/18 13:30:47;;;;;;;6.80;3.70;;;6.80;99.90;;;;;;5052922;28;20139;-53
2022/01/18 13:33:50;;;;;;;8.10;3.92;;;6.90;99.90;;;;;;5053009;28;20055;-50
2022/01/18 13:36:51;;;;;;;5.88;3.80;;;6.90;99.90;;;;;;5052641;28;20115;-51
2022/01/18 13:39:40;;;;;;;8.25;4.25;;;6.80;99.90;;;;;;5052381;28;20064;-54
2022/01/18 13:42:47;;;;;;;8.02;4.40;;;6.80;99.90;;;;;;5052510;28;20087;-52
2022/01/18 13:45:34;;;;;;;8.13;4.25;;;6.70;99.90;;;;;;5052826;28;20032;-49
2022/01/18 13:48:18;;;;;;;7.28;4.03;;;6.70;99.90;;;;;;5052675;28;20162;-51
2022/01/18 13:51:19;;;;;;;6.70;4.13;;;6.60;99.90;;;;;;5051441;28;20044;-52
2022/01/18 13:54:07;;;;;;;9.18;4.80;;;6.60;99.90;;;;;;5052387;28;20032;-55
2022/01/18 13:56:51;;;;;;;9.65;4.68;;;6.60;99.90;;;;;;5051093;28;20090;-51
2022/01/18 13:59:35;;;;;;;7.38;4.60;;;6.60;99.90;;;;;;5051368;28;20462;-53
2022/01/18 14:02:22;;;;;;;9.57;5.10;;;6.50;99.90;;;;;;5037256;28;20052;-50
2022/01/18 14:05:09;;;;;;;7.63;4.65;;;6.60;99.90;;;;;;5052578;28;20500;-51
2022/01/18 14:08:10;;;;;;;11.05;4.85;;;6.50;99.90;;;;;;5052152;28;20498;-52
2022/01/18 14:11:03;;;;;;;7.22;4.53;;;6.60;99.90;;;;;;5052564;28;20044;-52
2022/01/18 14:13:48;;;;;;;11.52;5.93;;;6.60;99.90;;;;;;5052255;28;20066;-50
2022/01/18 14:16:36;;;;;;;8.20;4.72;;;6.40;99.90;;;;;;5052462;28;20031;-52
2022/01/18 14:19:28;;;;;;;12.50;5.22;;;6.40;99.90;;;;;;5035876;28;20102;-54
2022/01/18 14:22:23;;;;;;;11.20;4.72;;;6.50;99.90;;;;;;5051094;28;20036;-52
2022/01/18 14:25:09;;;;;;;8.05;4.65;;;6.50;99.90;;;;;;5051415;28;20032;-49
2022/01/18 14:27:53;;;;;;;6.10;3.92;;;6.60;99.90;;;;;;5052232;28;20033;-52
2022/01/18 14:30:42;;;;;;;10.90;4.47;;;6.50;99.90;;;;;;5035756;28;20044;-51
2022/01/18 14:33:26;;;;;;;6.90;4.45;;;6.40;99.90;;;;;;5052973;28;20031;-50
2022/01/18 14:36:15;;;;;;;9.10;4.45;;;6.50;99.90;;;;;;5056259;28;20409;-51
2022/01/18 14:39:07;;;;;;;6.03;4.60;;;6.50;99.90;;;;;;5056445;28;20067;-49
2022/01/18 14:42:06;;;;;;;7.15;4.07;;;6.40;99.90;;;;;;5056197;28;20424;-52
2022/01/18 14:45:01;;;;;;;11.60;4.93;;;6.40;99.90;;;;;;5056631;28;20158;-51
2022/01/18 14:47:46;;;;;;;7.75;4.63;;;6.50;99.90;;;;;;5053166;28;20036;-54
2022/01/18 14:50:31;;;;;;;9.20;5.20;;;6.50;99.90;;;;;;5055820;28;20158;-52
2022/01/18 14:53:17;;;;;;;7.18;4.60;;;6.40;99.90;;;;;;5055578;28;20047;-53
2022/01/18 14:56:01;;;;;;;9.63;5.55;;;6.30;99.90;;;;;;5055538;28;20106;-53
2022/01/18 14:58:45;;;;;;;10.50;5.55;;;6.30;99.90;;;;;;5055902;28;20120;-50
2022/01/18 15:01:30;;;;;;;11.50;5.45;;;6.40;99.90;;;;;;5054302;28;20040;-51
2022/01/18 15:04:17;;;;;;;8.35;5.95;;;6.30;99.90;;;;;;5040322;28;20068;-52
2022/01/18 15:07:01;;;;;;;9.02;5.28;;;6.20;99.90;;;;;;5054278;28;20052;-51
2022/01/18 15:09:45;;;;;;;8.77;5.40;;;6.30;99.90;;;;;;5055694;28;20036;-52
2022/01/18 15:12:29;;;;;;;11.15;5.88;;;6.30;99.90;;;;;;5034615;28;20464;-51
2022/01/18 15:15:16;;;;;;;10.77;5.70;;;6.20;99.90;;;;;;5034790;28;20044;-54
2022/01/18 15:18:00;;;;;;;9.07;5.40;;;6.30;99.90;;;;;;5045093;28;20087;-54
2022/01/18 15:20:44;;;;;;;6.65;5.18;;;6.30;99.90;;;;;;5049905;28;20171;-50
2022/01/18 15:23:28;;;;;;;12.17;5.83;;;6.40;99.90;;;;;;5054868;28;20040;-51
2022/01/18 15:26:12;;;;;;;8.85;4.75;;;6.30;99.90;;;;;;5055232;28;20271;-51
2022/01/18 15:28:57;;;;;;;7.77;4.87;;;6.30;99.90;;;;;;5055167;28;20504;-50
2022/01/18 15:31:41;;;;;;;8.35;5.50;;;6.20;99.90;;;;;;5053915;28;20281;-53
2022/01/18 15:34:26;;;;;;;10.98;5.53;;;6.20;99.90;;;;;;5054306;28;20083;-52
2022/01/18 15:37:11;;;;;;;12.32;5.57;;;6.20;99.90;;;;;;5054687;28;20044;-56
2022/01/18 15:40:00;;;;;;;;;;;6.20;99.90;;;;;;5055267;28;20194;-53
2022/01/18 15:42:44;;;;;;;7.57;4.80;;;6.10;99.90;;;;;;5054775;28;20376;-54
2022/01/18 15:45:28;;;;;;;11.13;5.05;;;6.10;99.90;;;;;;5055343;28;20040;-50